createdAt,value
2019-04-06T00:00:49.084Z,18.60
2019-04-06T00:03:15.952Z,17.37
2019-04-06T00:05:42.818Z,17.60
2019-04-06T00:08:09.674Z,17.10
2019-04-06T00:10:36.477Z,17.20
2019-04-06T00:13:03.376Z,17.50
2019-04-06T00:15:30.263Z,17.73
2019-04-06T00:17:56.964Z,17.67
2019-04-06T00:20:23.755Z,17.80
2019-04-06T00:22:50.737Z,17.73
2019-04-06T00:25:19.163Z,17.37
2019-04-06T00:27:45.919Z,17.77
2019-04-06T00:30:12.788Z,17.13
2019-04-06T00:32:59.186Z,18.20
2019-04-06T00:35:27.730Z,17.10
2019-04-06T00:37:54.629Z,17.20
2019-04-06T00:40:23.283Z,17.73
2019-04-06T00:42:50.132Z,17.27
2019-04-06T00:45:16.896Z,17.60
2019-04-06T00:47:43.648Z,17.10
2019-04-06T00:50:10.438Z,17.60
2019-04-06T00:52:37.246Z,16.90
2019-04-06T00:55:04.291Z,18.60
2019-04-06T00:57:31.009Z,18.10
2019-04-06T00:59:57.744Z,17.77
2019-04-06T01:02:24.642Z,17.80
2019-04-06T01:04:51.862Z,17.43
2019-04-06T01:07:18.596Z,17.70
2019-04-06T01:09:46.095Z,17.97
2019-04-06T01:12:12.893Z,17.93
2019-04-06T01:14:41.674Z,17.70
2019-04-06T01:17:08.536Z,17.53
2019-04-06T01:19:35.318Z,17.20
2019-04-06T01:22:02.702Z,17.87
2019-04-06T01:24:29.612Z,17.73
2019-04-06T01:26:56.580Z,18.70
2019-04-06T01:29:23.329Z,17.33
2019-04-06T01:31:50.180Z,19.03
2019-04-06T01:34:17.367Z,17.37
2019-04-06T01:36:44.118Z,18.07
2019-04-06T01:39:11.210Z,18.27
2019-04-06T01:41:37.955Z,17.33
2019-04-06T01:44:06.121Z,17.40
2019-04-06T01:46:35.661Z,18.17
2019-04-06T01:49:02.730Z,16.90
2019-04-06T01:51:29.794Z,16.40
2019-04-06T01:53:56.554Z,17.50
2019-04-06T01:56:23.390Z,18.33
2019-04-06T01:58:50.131Z,16.23
2019-04-06T02:01:24.205Z,16.03
2019-04-06T02:03:51.198Z,15.50
2019-04-06T02:06:18.004Z,15.77
2019-04-06T02:08:44.783Z,16.00
2019-04-06T02:11:11.505Z,15.97
2019-04-06T02:13:38.847Z,14.83
2019-04-06T02:16:05.530Z,14.10
2019-04-06T02:18:32.304Z,14.60
2019-04-06T02:20:59.065Z,14.97
2019-04-06T02:23:26.151Z,16.13
2019-04-06T02:25:52.902Z,15.03
2019-04-06T02:28:19.919Z,14.20
2019-04-06T02:31:00.335Z,14.77
2019-04-06T02:33:40.466Z,16.70
2019-04-06T02:36:21.892Z,17.60
2019-04-06T02:38:56.558Z,19.30
2019-04-06T02:41:41.506Z,16.03
2019-04-06T02:44:08.428Z,16.13
2019-04-06T02:46:35.351Z,17.83
2019-04-06T02:49:02.221Z,17.80
2019-04-06T02:51:30.534Z,17.27
2019-04-06T02:53:57.328Z,16.80
2019-04-06T02:56:24.209Z,17.33
2019-04-06T02:58:51.243Z,18.30
2019-04-06T03:01:18.087Z,17.80
2019-04-06T03:03:47.724Z,16.90
2019-04-06T03:06:14.523Z,17.83
2019-04-06T03:08:41.486Z,17.77
2019-04-06T03:11:08.206Z,15.60
2019-04-06T03:13:34.973Z,16.90
2019-04-06T03:16:04.084Z,16.57
2019-04-06T03:18:30.893Z,15.50
2019-04-06T03:20:57.635Z,15.87
2019-04-06T03:23:25.685Z,16.40
2019-04-06T03:25:52.578Z,16.60
2019-04-06T03:28:19.393Z,15.23
2019-04-06T03:30:46.628Z,16.67
2019-04-06T03:33:13.576Z,16.17
2019-04-06T03:35:46.942Z,16.13
2019-04-06T03:38:09.235Z,16.27
2019-04-06T03:40:36.475Z,16.37
2019-04-06T03:43:05.571Z,16.03
2019-04-06T03:45:32.269Z,16.17
2019-04-06T03:47:59.581Z,16.13
2019-04-06T03:50:26.322Z,15.97
2019-04-06T03:52:53.736Z,15.30
2019-04-06T03:55:20.551Z,15.87
2019-04-06T03:57:47.480Z,15.80
2019-04-06T04:00:16.789Z,16.33
2019-04-06T04:02:43.805Z,15.00
2019-04-06T04:05:12.287Z,15.20
2019-04-06T04:07:39.529Z,14.43
2019-04-06T04:10:06.377Z,14.03
2019-04-06T04:12:33.434Z,14.33
2019-04-06T04:15:00.794Z,14.43
2019-04-06T04:17:27.967Z,15.03
2019-04-06T04:19:55.485Z,14.87
2019-04-06T04:22:22.498Z,14.93
2019-04-06T04:24:49.811Z,14.80
2019-04-06T04:27:27.648Z,15.23
2019-04-06T04:29:45.355Z,14.40
2019-04-06T04:32:12.134Z,16.00
2019-04-06T04:34:39.115Z,18.57
2019-04-06T04:37:05.922Z,15.00
2019-04-06T04:39:32.773Z,15.67
2019-04-06T04:41:59.517Z,14.87
2019-04-06T04:44:26.261Z,15.33
2019-04-06T04:46:53.009Z,15.10
2019-04-06T04:49:20.150Z,16.73
2019-04-06T04:51:47.689Z,17.00
2019-04-06T04:54:14.663Z,14.43
2019-04-06T04:56:41.423Z,15.20
2019-04-06T04:59:08.279Z,14.70
2019-04-06T05:01:35.425Z,13.73
2019-04-06T05:04:05.142Z,13.90
2019-04-06T05:06:32.131Z,14.90
2019-04-06T05:08:58.889Z,14.13
2019-04-06T05:11:26.049Z,14.57
2019-04-06T05:14:30.781Z,13.97
2019-04-06T05:16:57.614Z,14.23
2019-04-06T05:19:26.309Z,13.30
2019-04-06T05:21:53.657Z,15.17
2019-04-06T05:24:20.578Z,17.57
2019-04-06T05:26:47.557Z,18.30
2019-04-06T05:29:14.481Z,14.00
2019-04-06T05:31:41.703Z,14.30
2019-04-06T05:34:08.464Z,15.67
2019-04-06T05:36:35.353Z,14.60
2019-04-06T05:39:04.099Z,14.87
2019-04-06T05:41:31.499Z,15.27
2019-04-06T05:43:58.391Z,15.60
2019-04-06T05:46:25.517Z,14.83
2019-04-06T05:48:54.401Z,15.57
2019-04-06T05:51:21.177Z,14.93
2019-04-06T05:53:47.901Z,15.60
2019-04-06T05:56:14.643Z,15.47
2019-04-06T05:58:41.470Z,14.47
2019-04-06T06:01:10.961Z,15.00
2019-04-06T06:03:40.474Z,14.87
2019-04-06T06:06:07.109Z,15.00
2019-04-06T06:08:34.233Z,14.70
2019-04-06T06:11:01.029Z,13.67
2019-04-06T06:13:29.506Z,13.13
2019-04-06T06:16:00.945Z,14.47
2019-04-06T06:18:27.816Z,14.67
2019-04-06T06:20:54.713Z,14.40
2019-04-06T06:23:23.879Z,13.83
2019-04-06T06:25:50.645Z,14.57
2019-04-06T06:28:17.636Z,13.90
2019-04-06T06:30:44.395Z,13.90
2019-04-06T06:33:11.132Z,14.20
2019-04-06T06:35:38.021Z,14.40
2019-04-06T06:38:04.896Z,15.23
2019-04-06T06:40:31.702Z,13.73
2019-04-06T06:42:58.506Z,14.60
2019-04-06T06:45:25.263Z,14.57
2019-04-06T06:48:00.387Z,14.50
2019-04-06T06:50:27.265Z,15.23
2019-04-06T06:52:54.148Z,14.07
2019-04-06T06:55:20.979Z,14.00
2019-04-06T06:57:47.948Z,14.67
2019-04-06T07:00:14.733Z,13.33
2019-04-06T07:02:41.919Z,14.70
2019-04-06T07:05:09.250Z,13.53
2019-04-06T07:07:39.156Z,13.53
2019-04-06T07:10:07.138Z,13.73
2019-04-06T07:12:33.829Z,14.40
2019-04-06T07:15:00.638Z,12.70
2019-04-06T07:17:27.394Z,14.00
2019-04-06T07:19:54.262Z,12.90
2019-04-06T07:22:24.513Z,14.63
2019-04-06T07:24:54.258Z,13.87
2019-04-06T07:27:21.010Z,14.00
2019-04-06T07:29:47.933Z,14.23
2019-04-06T07:32:15.098Z,13.63
2019-04-06T07:34:44.389Z,15.30
2019-04-06T07:37:11.485Z,13.40
2019-04-06T07:39:40.032Z,12.90
2019-04-06T07:42:10.132Z,13.53
2019-04-06T07:44:36.886Z,13.90
2019-04-06T07:47:07.045Z,13.60
2019-04-06T07:49:38.488Z,14.00
2019-04-06T07:52:08.382Z,13.70
2019-04-06T07:54:37.184Z,14.83
2019-04-06T07:57:04.113Z,13.70
2019-04-06T07:59:30.971Z,14.57
2019-04-06T08:02:00.724Z,14.10
2019-04-06T08:04:31.251Z,13.73
2019-04-06T08:06:59.300Z,13.47
2019-04-06T08:09:26.445Z,13.50
2019-04-06T08:12:00.229Z,14.60
2019-04-06T08:14:30.418Z,13.80
2019-04-06T08:17:00.162Z,12.87
2019-04-06T08:19:29.142Z,13.63
2019-04-06T08:21:59.050Z,12.93
2019-04-06T08:24:27.162Z,13.83
2019-04-06T08:26:56.709Z,10.90
2019-04-06T08:29:23.708Z,13.27
2019-04-06T08:31:54.853Z,14.07
2019-04-06T08:34:22.180Z,14.10
2019-04-06T08:36:52.438Z,13.43
2019-04-06T08:39:19.194Z,13.87
2019-04-06T08:41:46.563Z,14.60
2019-04-06T08:44:13.574Z,15.10
2019-04-06T08:46:40.572Z,15.63
2019-04-06T08:49:07.476Z,14.10
2019-04-06T08:51:34.348Z,13.57
2019-04-06T08:54:07.112Z,13.90
2019-04-06T08:56:37.118Z,13.43
2019-04-06T08:59:11.574Z,13.80
2019-04-06T09:01:37.118Z,13.80
2019-04-06T09:04:05.440Z,13.03
2019-04-06T09:06:34.376Z,13.43
2019-04-06T09:09:05.030Z,12.03
2019-04-06T09:11:33.616Z,13.13
2019-04-06T09:14:01.598Z,12.40
2019-04-06T09:16:28.353Z,13.47
2019-04-06T09:18:55.234Z,13.77
2019-04-06T09:21:22.893Z,12.67
2019-04-06T09:23:53.356Z,13.73
2019-04-06T09:26:20.290Z,13.33
2019-04-06T09:28:47.163Z,13.37
2019-04-06T09:31:14.374Z,14.03
2019-04-06T09:33:41.370Z,13.27
2019-04-06T09:36:08.413Z,11.50
2019-04-06T09:38:35.564Z,11.80
2019-04-06T09:41:04.595Z,11.40
2019-04-06T09:43:31.384Z,14.50
2019-04-06T09:46:17.108Z,12.00
2019-04-06T09:49:03.828Z,16.07
2019-04-06T09:51:56.192Z,10.90
2019-04-06T09:54:31.856Z,11.73
2019-04-06T09:57:36.378Z,10.73
2019-04-06T10:00:28.164Z,11.10
2019-04-06T10:03:17.648Z,13.27
2019-04-06T10:06:16.242Z,11.50
2019-04-06T10:09:05.668Z,10.60
2019-04-06T10:11:52.258Z,10.70
2019-04-06T10:14:52.005Z,10.37
2019-04-06T10:17:43.062Z,11.77
2019-04-06T10:20:31.643Z,11.90
2019-04-06T10:23:24.772Z,12.30
2019-04-06T10:26:13.613Z,11.47
2019-04-06T10:29:09.727Z,11.47
2019-04-06T10:32:16.004Z,11.80
2019-04-06T10:34:56.346Z,11.47
2019-04-06T10:37:36.526Z,12.87
2019-04-06T10:40:16.054Z,12.83
2019-04-06T10:43:02.793Z,12.67
2019-04-06T10:45:54.922Z,12.50
2019-04-06T10:48:34.317Z,12.40
2019-04-06T10:51:27.216Z,12.77
2019-04-06T10:54:18.731Z,12.63
2019-04-06T10:57:05.326Z,12.23
2019-04-06T10:59:59.221Z,11.47
2019-04-06T11:02:34.239Z,12.10
2019-04-06T11:05:19.451Z,13.37
2019-04-06T11:08:07.655Z,11.47
2019-04-06T11:10:45.427Z,12.10
2019-04-06T11:13:40.653Z,11.53
2019-04-06T11:16:42.508Z,12.80
2019-04-06T11:19:31.022Z,11.97
2019-04-06T11:22:20.188Z,13.10
2019-04-06T11:25:07.358Z,12.83
2019-04-06T11:27:54.720Z,12.97
2019-04-06T11:30:41.190Z,12.53
2019-04-06T11:33:26.756Z,13.67
2019-04-06T11:36:09.149Z,13.40
2019-04-06T11:39:05.169Z,13.73
2019-04-06T11:42:07.224Z,12.30
2019-04-06T11:44:56.154Z,13.33
2019-04-06T11:47:42.955Z,14.13
2019-04-06T11:50:29.635Z,13.13
2019-04-06T11:53:11.998Z,13.10
2019-04-06T11:55:48.265Z,12.70
2019-04-06T11:58:37.910Z,14.17
2019-04-06T12:01:33.664Z,14.03
2019-04-06T12:04:29.282Z,15.23
2019-04-06T12:07:18.903Z,14.87
2019-04-06T12:10:12.298Z,15.57
2019-04-06T12:12:46.402Z,15.30
2019-04-06T12:15:30.251Z,14.93
2019-04-06T12:18:31.898Z,14.30
2019-04-06T12:21:07.591Z,15.30
2019-04-06T12:23:56.343Z,16.53
2019-04-06T12:26:42.815Z,15.83
2019-04-06T12:29:35.139Z,14.90
2019-04-06T12:32:15.470Z,18.47
2019-04-06T12:34:50.408Z,14.30
2019-04-06T12:37:26.267Z,14.73
2019-04-06T12:40:00.176Z,15.20
2019-04-06T12:43:04.999Z,15.43
2019-04-06T12:45:52.140Z,15.50
2019-04-06T12:48:56.852Z,17.33
2019-04-06T12:51:50.988Z,15.97
2019-04-06T12:54:38.072Z,16.87
2019-04-06T12:57:24.800Z,16.27
2019-04-06T12:59:58.322Z,16.37
2019-04-06T13:02:44.991Z,16.00
2019-04-06T13:05:34.484Z,17.40
2019-04-06T13:08:19.501Z,17.60
2019-04-06T13:11:05.544Z,15.90
2019-04-06T13:14:10.936Z,15.30
2019-04-06T13:17:01.040Z,16.30
2019-04-06T13:19:46.177Z,17.57
2019-04-06T13:22:24.119Z,16.43
2019-04-06T13:24:59.753Z,16.13
2019-04-06T13:27:34.637Z,12.97
2019-04-06T13:30:24.109Z,14.73
2019-04-06T13:33:13.401Z,15.63
2019-04-06T13:35:58.687Z,15.90
2019-04-06T13:38:41.662Z,14.80
2019-04-06T13:41:16.622Z,15.27
2019-04-06T13:43:49.102Z,16.40
2019-04-06T13:46:29.620Z,15.97
2019-04-06T13:49:23.529Z,15.60
2019-04-06T13:52:07.682Z,16.33
2019-04-06T13:54:40.302Z,15.10
2019-04-06T13:57:29.963Z,15.53
2019-04-06T14:00:14.783Z,15.23
2019-04-06T14:02:54.747Z,15.20
2019-04-06T14:05:44.180Z,16.73
2019-04-06T14:08:43.324Z,14.77
2019-04-06T14:11:33.086Z,16.10
2019-04-06T14:14:18.263Z,15.90
2019-04-06T14:16:59.087Z,17.70
2019-04-06T14:19:44.185Z,15.80
2019-04-06T14:22:36.310Z,15.73
2019-04-06T14:25:15.080Z,17.33
2019-04-06T14:28:04.314Z,16.07
2019-04-06T14:30:56.628Z,16.63
2019-04-06T14:33:46.520Z,15.67
2019-04-06T14:36:35.661Z,16.93
2019-04-06T14:39:28.052Z,14.53
2019-04-06T14:42:14.920Z,13.83
2019-04-06T14:44:53.274Z,13.27
2019-04-06T14:47:35.171Z,14.00
2019-04-06T14:50:24.995Z,13.23
2019-04-06T14:53:05.591Z,13.70
2019-04-06T14:55:40.267Z,13.20
2019-04-06T14:58:25.957Z,13.60
2019-04-06T15:01:40.307Z,12.50
2019-04-06T15:04:14.836Z,12.87
2019-04-06T15:07:09.457Z,16.03
2019-04-06T15:09:51.829Z,17.47
2019-04-06T15:12:46.524Z,17.63
2019-04-06T15:15:23.425Z,18.90
2019-04-06T15:18:12.884Z,18.70
2019-04-06T15:20:59.664Z,18.37
2019-04-06T15:23:36.324Z,18.33
2019-04-06T15:26:12.751Z,18.43
2019-04-06T15:29:02.632Z,18.83
2019-04-06T15:31:51.791Z,17.90
2019-04-06T15:34:25.407Z,19.23
2019-04-06T15:37:12.016Z,18.37
2019-04-06T15:39:59.835Z,19.37
2019-04-06T15:42:44.062Z,19.60
2019-04-06T15:45:29.703Z,19.70
2019-04-06T15:48:35.825Z,18.07
2019-04-06T15:50:57.399Z,24.37
2019-04-06T15:53:36.997Z,19.20
2019-04-06T15:56:39.563Z,18.13
2019-04-06T15:59:26.279Z,18.40
2019-04-06T16:02:12.986Z,18.13
2019-04-06T16:04:49.580Z,17.43
2019-04-06T16:07:34.240Z,18.53
2019-04-06T16:10:20.725Z,18.50
2019-04-06T16:13:19.097Z,17.37
2019-04-06T16:15:59.899Z,18.93
2019-04-06T16:18:37.478Z,18.00
2019-04-06T16:21:26.862Z,18.40
2019-04-06T16:24:16.033Z,18.40
2019-04-06T16:26:52.400Z,18.53
2019-04-06T16:29:42.583Z,18.00
2019-04-06T16:32:34.317Z,18.17
2019-04-06T16:35:24.689Z,17.73
2019-04-06T16:38:22.097Z,18.30
2019-04-06T16:41:07.573Z,18.50
2019-04-06T16:43:56.024Z,17.50
2019-04-06T16:46:43.640Z,17.60
2019-04-06T16:49:31.454Z,17.30
2019-04-06T16:52:27.694Z,17.03
2019-04-06T16:55:12.996Z,17.00
2019-04-06T16:58:17.591Z,17.87
2019-04-06T17:01:10.043Z,17.43
2019-04-06T17:03:46.525Z,17.87
2019-04-06T17:06:32.993Z,17.43
2019-04-06T17:09:10.637Z,17.60
2019-04-06T17:12:00.462Z,18.73
2019-04-06T17:14:37.487Z,17.47
2019-04-06T17:17:35.824Z,17.93
2019-04-06T17:20:29.571Z,18.57
2019-04-06T17:23:19.884Z,20.13
2019-04-06T17:26:09.336Z,17.67
2019-04-06T17:28:59.260Z,18.90
2019-04-06T17:31:50.670Z,19.00
2019-04-06T17:34:53.453Z,17.83
2019-04-06T17:37:30.008Z,17.87
2019-04-06T17:40:19.165Z,18.23
2019-04-06T17:42:52.717Z,17.40
2019-04-06T17:45:39.711Z,18.50
2019-04-06T17:48:19.635Z,19.57
2019-04-06T17:51:11.374Z,19.33
2019-04-06T17:54:04.042Z,18.50
2019-04-06T17:57:08.996Z,18.10
2019-04-06T17:59:54.159Z,19.27
2019-04-06T18:02:49.207Z,19.00
2019-04-06T18:05:24.906Z,18.50
2019-04-06T18:08:00.247Z,18.03
2019-04-06T18:10:35.872Z,18.97
2019-04-06T18:13:20.898Z,18.70
2019-04-06T18:15:47.766Z,16.93
2019-04-06T18:18:15.553Z,17.70
2019-04-06T18:20:42.771Z,18.80
2019-04-06T18:23:09.905Z,18.80
2019-04-06T18:25:38.341Z,19.33
2019-04-06T18:28:05.416Z,20.27
2019-04-06T18:30:32.780Z,19.03
2019-04-06T18:33:06.269Z,18.53
2019-04-06T18:35:36.112Z,19.67
2019-04-06T18:38:37.626Z,17.90
2019-04-06T18:41:04.790Z,19.10
2019-04-06T18:43:31.675Z,20.70
2019-04-06T18:45:58.817Z,18.33
2019-04-06T18:48:26.369Z,18.70
2019-04-06T18:50:53.131Z,17.23
2019-04-06T18:53:19.873Z,18.13
2019-04-06T18:55:50.059Z,15.60
2019-04-06T18:58:18.741Z,15.13
2019-04-06T19:00:45.837Z,15.50
2019-04-06T19:03:16.683Z,14.13
2019-04-06T19:05:43.848Z,13.73
2019-04-06T19:08:12.044Z,13.60
2019-04-06T19:10:39.381Z,13.37
2019-04-06T19:13:07.429Z,13.17
2019-04-06T19:15:36.914Z,13.70
2019-04-06T19:18:04.246Z,14.00
2019-04-06T19:20:31.651Z,14.10
2019-04-06T19:22:58.996Z,14.87
2019-04-06T19:25:26.327Z,13.03
2019-04-06T19:27:53.590Z,13.23
2019-04-06T19:30:20.442Z,13.03
2019-04-06T19:32:47.354Z,13.20
2019-04-06T19:35:14.415Z,12.77
2019-04-06T19:37:41.373Z,12.40
2019-04-06T19:40:08.323Z,13.73
2019-04-06T19:42:35.360Z,14.27
2019-04-06T19:45:02.987Z,13.83
2019-04-06T19:47:30.136Z,14.20
2019-04-06T19:49:56.971Z,13.80
2019-04-06T19:52:24.478Z,15.50
2019-04-06T19:54:52.209Z,14.60
2019-04-06T19:57:19.451Z,14.60
2019-04-06T19:59:47.435Z,15.00
2019-04-06T20:02:14.515Z,14.57
2019-04-06T20:04:41.320Z,14.80
2019-04-06T20:07:10.749Z,15.23
2019-04-06T20:09:36.757Z,15.90
2019-04-06T20:12:07.232Z,15.10
2019-04-06T20:14:32.718Z,15.33
2019-04-06T20:16:59.731Z,15.80
2019-04-06T20:19:26.473Z,15.03
2019-04-06T20:21:53.217Z,14.70
2019-04-06T20:24:20.752Z,15.53
2019-04-06T20:26:47.936Z,15.30
2019-04-06T20:29:18.202Z,15.23
2019-04-06T20:31:44.919Z,16.33
2019-04-06T20:34:11.882Z,15.50
2019-04-06T20:36:39.668Z,14.40
2019-04-06T20:39:07.674Z,16.77
2019-04-06T20:41:34.610Z,15.47
2019-04-06T20:44:01.353Z,13.90
2019-04-06T20:46:28.609Z,12.80
2019-04-06T20:48:55.574Z,13.47
2019-04-06T20:51:22.586Z,12.43
2019-04-06T20:53:49.784Z,13.20
2019-04-06T20:56:16.496Z,11.30
2019-04-06T20:58:43.518Z,13.10
2019-04-06T21:01:11.170Z,12.60
2019-04-06T21:03:38.574Z,10.97
2019-04-06T21:06:05.317Z,11.00
2019-04-06T21:08:32.224Z,11.13
2019-04-06T21:10:59.370Z,11.27
2019-04-06T21:13:26.740Z,10.33
2019-04-06T21:15:53.585Z,10.17
2019-04-06T21:18:22.263Z,10.47
2019-04-06T21:20:49.520Z,11.77
2019-04-06T21:23:17.190Z,12.73
2019-04-06T21:25:44.437Z,11.53
2019-04-06T21:28:11.157Z,12.00
2019-04-06T21:30:37.945Z,11.50
2019-04-06T21:33:04.693Z,11.70
2019-04-06T21:35:31.754Z,11.73
2019-04-06T21:37:58.560Z,11.00
2019-04-06T21:40:25.368Z,11.20
2019-04-06T21:42:52.351Z,11.07
2019-04-06T21:45:19.674Z,11.80
2019-04-06T21:47:46.627Z,10.53
2019-04-06T21:50:13.685Z,11.70
2019-04-06T21:52:40.560Z,11.70
2019-04-06T21:55:07.758Z,16.70
2019-04-06T21:57:34.649Z,11.40
2019-04-06T22:00:02.180Z,11.10
2019-04-06T22:02:29.635Z,11.10
2019-04-06T22:04:56.375Z,13.10
2019-04-06T22:07:23.331Z,11.23
2019-04-06T22:09:50.464Z,11.77
2019-04-06T22:12:20.723Z,10.40
2019-04-06T22:14:47.691Z,10.90
2019-04-06T22:17:14.512Z,10.97
2019-04-06T22:19:41.255Z,10.50
2019-04-06T22:22:08.005Z,11.30
2019-04-06T22:24:35.079Z,11.97
2019-04-06T22:27:02.087Z,11.40
2019-04-06T22:29:28.940Z,10.63
2019-04-06T22:31:55.685Z,10.63
2019-04-06T22:34:34.019Z,10.10
2019-04-06T22:36:53.452Z,10.40
2019-04-06T22:39:20.372Z,10.50
2019-04-06T22:41:47.856Z,9.87
2019-04-06T22:44:17.126Z,10.30
2019-04-06T22:46:43.848Z,10.20
2019-04-06T22:49:11.185Z,10.50
2019-04-06T22:51:38.026Z,10.33
2019-04-06T22:54:05.308Z,10.20
2019-04-06T22:56:32.635Z,10.07
2019-04-06T22:58:59.558Z,9.80
2019-04-06T23:01:31.163Z,10.20
2019-04-06T23:04:32.315Z,10.97
2019-04-06T23:07:18.942Z,10.50
2019-04-06T23:09:46.561Z,10.37
2019-04-06T23:12:13.533Z,10.30
2019-04-06T23:14:40.253Z,11.13
2019-04-06T23:17:07.065Z,10.27
2019-04-06T23:19:37.598Z,10.33
2019-04-06T23:22:04.611Z,9.80
2019-04-06T23:24:31.742Z,10.80
2019-04-06T23:26:59.055Z,10.70
2019-04-06T23:29:25.866Z,9.87
2019-04-06T23:31:53.165Z,9.30
2019-04-06T23:34:20.316Z,9.83
2019-04-06T23:36:47.394Z,9.87
2019-04-06T23:39:14.312Z,10.03
2019-04-06T23:41:41.015Z,8.77
2019-04-06T23:44:08.071Z,8.80
2019-04-06T23:46:35.037Z,9.70
2019-04-06T23:49:02.705Z,8.90
2019-04-06T23:51:30.407Z,10.30
2019-04-06T23:53:57.428Z,9.57
2019-04-06T23:56:24.244Z,11.07
2019-04-06T23:58:50.993Z,10.03
